Detall de PIREP

Printer-friendly versionPDF version

[2012/05/16 07:25:00]
Flight IATA:CT0001
Pilot Number:041
Company ICAO:CAT
Aircraft Type:C172/A
PAX:2
Departing Airport: LEVC
Destination Airport: LEMH
Alternate Airport:LEPA
Online: VATSIM
Route:RIKOS A33 TURIA A33 GATOS A33 MJV
Flight Level:A040
No Slew and time accel
No pause
Crash detect
Detect pilot in Cockpit between each 30 and 45 minutes
07:25 Zero fuel Weight: 2010 Lbs, Fuel Weight: 335 Lbs
07:25 VATSIM:LEVC 160700Z VRB02KT 9999 FEW030 18/10 Q1021 NOSIG
07:25 VATSIM:LEMH 160700Z 02017KT 9999 FEW035 BKN040 16/09 Q1021
07:25 VOICE CATALONIAN
07:28 Parking Brakes off
07:35 Take-off
07:35 Take off Weight: 2344 Lbs
07:35 Wind: 167º @ 004 Knots Heading: 295º
07:35 POS N39º 29´ 11´´ W000º 28´ 26´´
07:35 Flaps:1 at 72 Knots
07:36 Flaps:0 at 68 Knots
07:41 TOC
07:41 Fuel Weight: 328 Lb
07:50 Wind:044º@006 Knots Heading: 102º Ground Speed: 099 Knots Altitude 3996 ft
08:05 Wind:044º@006 Knots Heading: 086º Ground Speed: 100 Knots Altitude 3999 ft
08:20 Wind:352º@008 Knots Heading: 086º Ground Speed: 106 Knots Altitude 3992 ft
08:35 Wind:352º@008 Knots Heading: 087º Ground Speed: 112 Knots Altitude 3979 ft
08:50 Wind:315º@006 Knots Heading: 089º Ground Speed: 109 Knots Altitude 3976 ft
09:05 Wind:315º@006 Knots Heading: 089º Ground Speed: 117 Knots Altitude 3989 ft
09:20 Wind:315º@006 Knots Heading: 054º Ground Speed: 110 Knots Altitude 3963 ft
09:22 TOD
09:22 Fuel Weight: 251 Lb
09:35 Wind:316º@008 Knots Heading: 054º Ground Speed: 108 Knots Altitude 2946 ft
09:49 Flaps:1 at 81 Knots
09:50 Wind:316º@008 Knots Heading: 006º Ground Speed: 076 Knots Altitude 2726 ft
09:50 Flaps:2 at 78 Knots
09:58 TouchDown:Rate -69 ft/min Speed: 61 Knots
09:58 Flaps:1 at 52 Knots
09:58 VATSIM:LEMH 160930Z 01019KT 9999 FEW025 BKN043 17/09Q1022
09:58 Land
09:58 Wind:001º@018 Knots
09:58 Heading: 008º
09:58 Flight Duration: 02:23
09:58 Landing Weight: 2238 Lbs
09:58 POS N39º 51´ 19´´ E004º 13´ 01´´
10:01 Parking brakes on
10:01 Block to Block Duration: 02:33
10:01 Final Fuel: 227 Lbls
10:01 Spent Fuel: 108 Lbls
10:01 Flight Length: 244 NM
10:01 TOD Land Length: 57 NM

Exportar CSV

Powered by Drupal - Modified by Danger4k